sensor_id;sensor_type;location;lat;lon;timestamp;pressure;altitude;pressure_sealevel;temperature;humidity
20015;BME280;61787;42.022;23.078;2022-08-19T00:00:27;96488.31;;;22.65;59.99
20015;BME280;61787;42.022;23.078;2022-08-19T00:01:30;96494.31;;;22.80;59.78
20015;BME280;61787;42.022;23.078;2022-08-19T00:02:31;96495.63;;;22.91;59.64
20015;BME280;61787;42.022;23.078;2022-08-19T00:03:33;96494.25;;;23.03;59.52
20015;BME280;61787;42.022;23.078;2022-08-19T00:04:36;96496.69;;;23.17;59.09
20015;BME280;61787;42.022;23.078;2022-08-19T00:05:38;96497.97;;;23.29;58.64
20015;BME280;61787;42.022;23.078;2022-08-19T00:06:42;96502.47;;;23.39;58.25
20015;BME280;61787;42.022;23.078;2022-08-19T00:07:44;96507.03;;;23.46;57.66
20015;BME280;61787;42.022;23.078;2022-08-19T00:08:46;96507.72;;;23.50;57.62
20015;BME280;61787;42.022;23.078;2022-08-19T00:09:47;96509.63;;;23.53;57.30
20015;BME280;61787;42.022;23.078;2022-08-19T00:10:49;96512.44;;;23.49;57.17
20015;BME280;61787;42.022;23.078;2022-08-19T00:11:51;96507.03;;;23.46;57.23
20015;BME280;61787;42.022;23.078;2022-08-19T00:12:53;96509.91;;;23.38;57.82
20015;BME280;61787;42.022;23.078;2022-08-19T00:13:55;96511.88;;;23.38;57.56
20015;BME280;61787;42.022;23.078;2022-08-19T00:14:57;96510.56;;;23.26;57.45
20015;BME280;61787;42.022;23.078;2022-08-19T00:15:59;96506.16;;;23.13;58.10
20015;BME280;61787;42.022;23.078;2022-08-19T00:17:03;96496.25;;;22.99;58.37
20015;BME280;61787;42.022;23.078;2022-08-19T00:18:05;96499.44;;;22.98;58.47
20015;BME280;61787;42.022;23.078;2022-08-19T00:19:07;96494.00;;;22.94;58.68
20015;BME280;61787;42.022;23.078;2022-08-19T00:20:11;96495.00;;;22.84;59.02
20015;BME280;61787;42.022;23.078;2022-08-19T00:21:14;96490.78;;;22.79;59.02
20015;BME280;61787;42.022;23.078;2022-08-19T00:22:16;96485.50;;;22.69;59.23
20015;BME280;61787;42.022;23.078;2022-08-19T00:23:19;96477.38;;;22.65;60.11
20015;BME280;61787;42.022;23.078;2022-08-19T00:24:21;96475.66;;;22.75;59.36
20015;BME280;61787;42.022;23.078;2022-08-19T00:25:23;96481.75;;;22.82;59.20
20015;BME280;61787;42.022;23.078;2022-08-19T00:26:31;96473.78;;;22.68;59.31
20015;BME280;61787;42.022;23.078;2022-08-19T00:27:32;96483.03;;;22.54;59.89
20015;BME280;61787;42.022;23.078;2022-08-19T00:28:34;96483.03;;;22.54;59.97
20015;BME280;61787;42.022;23.078;2022-08-19T00:29:37;96483.03;;;22.54;59.82
20015;BME280;61787;42.022;23.078;2022-08-19T00:30:39;96486.97;;;22.53;60.30
20015;BME280;61787;42.022;23.078;2022-08-19T00:31:43;96492.31;;;22.61;59.96
20015;BME280;61787;42.022;23.078;2022-08-19T00:32:45;96492.13;;;22.71;59.53
20015;BME280;61787;42.022;23.078;2022-08-19T00:33:46;96488.13;;;22.76;58.95
20015;BME280;61787;42.022;23.078;2022-08-19T00:34:50;96494.22;;;22.83;58.62
20015;BME280;61787;42.022;23.078;2022-08-19T00:35:55;96490.22;;;22.88;58.64
20015;BME280;61787;42.022;23.078;2022-08-19T00:36:57;96492.53;;;22.89;58.74
20015;BME280;61787;42.022;23.078;2022-08-19T00:38:01;96495.69;;;22.88;58.68
20015;BME280;61787;42.022;23.078;2022-08-19T00:39:02;96491.78;;;22.89;58.95
20015;BME280;61787;42.022;23.078;2022-08-19T00:40:07;96489.69;;;22.77;59.06
20015;BME280;61787;42.022;23.078;2022-08-19T00:41:12;96495.63;;;22.72;59.21
20015;BME280;61787;42.022;23.078;2022-08-19T00:42:15;96492.75;;;22.79;59.12
20015;BME280;61787;42.022;23.078;2022-08-19T00:43:22;96493.31;;;22.90;58.90
20015;BME280;61787;42.022;23.078;2022-08-19T00:44:27;96487.00;;;22.93;58.54
20015;BME280;61787;42.022;23.078;2022-08-19T00:45:29;96486.31;;;22.89;58.74
20015;BME280;61787;42.022;23.078;2022-08-19T00:46:39;96476.50;;;22.72;59.33
20015;BME280;61787;42.022;23.078;2022-08-19T00:47:41;96481.38;;;22.61;59.67
20015;BME280;61787;42.022;23.078;2022-08-19T00:48:43;96484.78;;;22.45;60.18
20015;BME280;61787;42.022;23.078;2022-08-19T00:49:48;96477.84;;;22.40;59.99
20015;BME280;61787;42.022;23.078;2022-08-19T00:50:53;96480.22;;;22.38;60.13
20015;BME280;61787;42.022;23.078;2022-08-19T00:52:00;96487.22;;;22.39;60.18
20015;BME280;61787;42.022;23.078;2022-08-19T00:53:06;96482.34;;;22.50;60.05
20015;BME280;61787;42.022;23.078;2022-08-19T00:54:08;96477.50;;;22.58;60.02
20015;BME280;61787;42.022;23.078;2022-08-19T00:55:15;96481.97;;;22.72;59.78
20015;BME280;61787;42.022;23.078;2022-08-19T00:56:19;96486.78;;;22.84;59.79
20015;BME280;61787;42.022;23.078;2022-08-19T00:57:26;96480.00;;;22.92;59.24
20015;BME280;61787;42.022;23.078;2022-08-19T00:58:31;96477.13;;;22.99;59.11
20015;BME280;61787;42.022;23.078;2022-08-19T00:59:35;96485.19;;;23.06;58.79
20015;BME280;61787;42.022;23.078;2022-08-19T01:00:58;96488.97;;;23.12;58.67
20015;BME280;61787;42.022;23.078;2022-08-19T01:02:03;96486.50;;;23.18;58.33
20015;BME280;61787;42.022;23.078;2022-08-19T01:03:07;96489.53;;;23.23;58.39
20015;BME280;61787;42.022;23.078;2022-08-19T01:04:10;96486.44;;;23.21;58.32
20015;BME280;61787;42.022;23.078;2022-08-19T01:05:16;96494.28;;;23.19;58.76
20015;BME280;61787;42.022;23.078;2022-08-19T01:06:19;96489.56;;;23.20;58.81
20015;BME280;61787;42.022;23.078;2022-08-19T01:07:22;96491.91;;;23.21;59.08
20015;BME280;61787;42.022;23.078;2022-08-19T01:08:24;96494.28;;;23.19;59.23
20015;BME280;61787;42.022;23.078;2022-08-19T01:09:25;96501.88;;;23.12;59.49
20015;BME280;61787;42.022;23.078;2022-08-19T01:10:31;96498.28;;;22.95;60.23
20015;BME280;61787;42.022;23.078;2022-08-19T01:11:42;96491.19;;;22.78;60.82
20015;BME280;61787;42.022;23.078;2022-08-19T01:12:46;96490.19;;;22.68;61.02
20015;BME280;61787;42.022;23.078;2022-08-19T01:13:50;96495.03;;;22.61;61.15
20015;BME280;61787;42.022;23.078;2022-08-19T01:14:53;96488.09;;;22.56;61.29
20015;BME280;61787;42.022;23.078;2022-08-19T01:15:59;96488.56;;;22.51;61.61
20015;BME280;61787;42.022;23.078;2022-08-19T01:17:02;96481.88;;;22.32;61.99
20015;BME280;61787;42.022;23.078;2022-08-19T01:18:08;96490.69;;;22.20;62.73
20015;BME280;61787;42.022;23.078;2022-08-19T01:19:17;96487.78;;;22.07;62.82
20015;BME280;61787;42.022;23.078;2022-08-19T01:20:22;96487.00;;;22.07;63.15
20015;BME280;61787;42.022;23.078;2022-08-19T01:21:31;96491.63;;;22.10;62.92
20015;BME280;61787;42.022;23.078;2022-08-19T01:23:44;96485.41;;;22.09;62.94
20015;BME280;61787;42.022;23.078;2022-08-19T01:24:46;96484.56;;;22.13;62.91
20015;BME280;61787;42.022;23.078;2022-08-19T01:25:52;96488.91;;;22.10;63.09
20015;BME280;61787;42.022;23.078;2022-08-19T01:26:56;96488.19;;;22.06;63.30
20015;BME280;61787;42.022;23.078;2022-08-19T01:27:58;96484.31;;;22.03;63.30
20015;BME280;61787;42.022;23.078;2022-08-19T01:29:11;96482.84;;;21.99;63.04
20015;BME280;61787;42.022;23.078;2022-08-19T01:30:20;96487.91;;;22.00;63.50
20015;BME280;61787;42.022;23.078;2022-08-19T01:31:25;96490.91;;;22.06;63.52
20015;BME280;61787;42.022;23.078;2022-08-19T01:32:28;96490.09;;;22.09;63.19
20015;BME280;61787;42.022;23.078;2022-08-19T01:33:34;96498.50;;;22.18;63.20
20015;BME280;61787;42.022;23.078;2022-08-19T01:34:36;96499.97;;;22.26;62.85
20015;BME280;61787;42.022;23.078;2022-08-19T01:35:37;96497.78;;;22.37;62.39
20015;BME280;61787;42.022;23.078;2022-08-19T01:36:42;96490.31;;;22.41;62.51
20015;BME280;61787;42.022;23.078;2022-08-19T01:37:52;96493.53;;;22.36;62.79
20015;BME280;61787;42.022;23.078;2022-08-19T01:38:54;96494.19;;;22.21;62.61
20015;BME280;61787;42.022;23.078;2022-08-19T01:39:56;96489.31;;;22.08;63.44
20015;BME280;61787;42.022;23.078;2022-08-19T01:40:58;96495.31;;;22.00;63.46
20015;BME280;61787;42.022;23.078;2022-08-19T01:42:01;96504.38;;;21.93;64.02
20015;BME280;61787;42.022;23.078;2022-08-19T01:43:04;96509.09;;;21.89;64.11
20015;BME280;61787;42.022;23.078;2022-08-19T01:44:08;96511.53;;;21.84;63.94
20015;BME280;61787;42.022;23.078;2022-08-19T01:45:21;96512.34;;;21.81;64.43
20015;BME280;61787;42.022;23.078;2022-08-19T01:46:23;96508.44;;;21.82;64.43
20015;BME280;61787;42.022;23.078;2022-08-19T01:47:25;96511.53;;;21.84;64.57
20015;BME280;61787;42.022;23.078;2022-08-19T01:48:33;96516.63;;;21.82;64.67
20015;BME280;61787;42.022;23.078;2022-08-19T01:49:36;96514.00;;;21.75;65.00
20015;BME280;61787;42.022;23.078;2022-08-19T01:50:38;96517.69;;;21.64;65.50
20015;BME280;61787;42.022;23.078;2022-08-19T01:51:39;96510.28;;;21.61;65.22
20015;BME280;61787;42.022;23.078;2022-08-19T01:52:42;96511.91;;;21.59;65.43
20015;BME280;61787;42.022;23.078;2022-08-19T01:53:48;96511.13;;;21.58;65.67
20015;BME280;61787;42.022;23.078;2022-08-19T01:54:49;96514.31;;;21.53;65.84
20015;BME280;61787;42.022;23.078;2022-08-19T01:55:51;96514.41;;;21.46;65.88
20015;BME280;61787;42.022;23.078;2022-08-19T01:56:58;96507.41;;;21.45;65.96
20015;BME280;61787;42.022;23.078;2022-08-19T01:58:02;96510.59;;;21.40;66.02
20015;BME280;61787;42.022;23.078;2022-08-19T01:59:11;96519.16;;;21.42;66.41
20015;BME280;61787;42.022;23.078;2022-08-19T02:00:16;96507.41;;;21.45;66.67
20015;BME280;61787;42.022;23.078;2022-08-19T02:01:19;96507.06;;;21.43;66.63
20015;BME280;61787;42.022;23.078;2022-08-19T02:02:20;96511.75;;;21.43;66.74
20015;BME280;61787;42.022;23.078;2022-08-19T02:03:22;96511.28;;;21.48;66.85
20015;BME280;61787;42.022;23.078;2022-08-19T02:04:24;96504.34;;;21.43;66.63
20015;BME280;61787;42.022;23.078;2022-08-19T02:05:27;96506.69;;;21.41;66.37
20015;BME280;61787;42.022;23.078;2022-08-19T02:06:30;96500.06;;;21.42;65.58
20015;BME280;61787;42.022;23.078;2022-08-19T02:07:32;96503.56;;;21.43;65.46
20015;BME280;61787;42.022;23.078;2022-08-19T02:08:36;96501.94;;;21.45;65.82
20015;BME280;61787;42.022;23.078;2022-08-19T02:09:38;96499.34;;;21.38;65.34
20015;BME280;61787;42.022;23.078;2022-08-19T02:10:41;96498.56;;;21.38;65.78
20015;BME280;61787;42.022;23.078;2022-08-19T02:11:43;96493.50;;;21.36;65.55
20015;BME280;61787;42.022;23.078;2022-08-19T02:12:45;96502.84;;;21.39;65.42
20015;BME280;61787;42.022;23.078;2022-08-19T02:13:48;96498.19;;;21.36;65.79
20015;BME280;61787;42.022;23.078;2022-08-19T02:14:50;96500.50;;;21.37;65.75
20015;BME280;61787;42.022;23.078;2022-08-19T02:15:52;96498.59;;;21.34;65.25
20015;BME280;61787;42.022;23.078;2022-08-19T02:16:54;96497.00;;;21.37;65.70
20015;BME280;61787;42.022;23.078;2022-08-19T02:17:55;96495.69;;;21.48;66.03
20015;BME280;61787;42.022;23.078;2022-08-19T02:18:57;96502.47;;;21.63;65.69
20015;BME280;61787;42.022;23.078;2022-08-19T02:20:03;96499.94;;;21.76;65.33
20015;BME280;61787;42.022;23.078;2022-08-19T02:21:05;96504.53;;;21.83;65.00
20015;BME280;61787;42.022;23.078;2022-08-19T02:22:07;96506.78;;;21.88;64.81
20015;BME280;61787;42.022;23.078;2022-08-19T02:23:11;96504.31;;;21.97;64.24
20015;BME280;61787;42.022;23.078;2022-08-19T02:24:16;96508.84;;;22.07;63.84
20015;BME280;61787;42.022;23.078;2022-08-19T02:25:17;96505.63;;;22.12;63.50
20015;BME280;61787;42.022;23.078;2022-08-19T02:26:19;96513.50;;;22.10;63.59
20015;BME280;61787;42.022;23.078;2022-08-19T02:27:22;96514.25;;;22.10;63.52
20015;BME280;61787;42.022;23.078;2022-08-19T02:28:24;96518.94;;;22.10;63.73
20015;BME280;61787;42.022;23.078;2022-08-19T02:29:25;96510.75;;;22.10;63.62
20015;BME280;61787;42.022;23.078;2022-08-19T02:30:27;96508.81;;;22.10;63.44
20015;BME280;61787;42.022;23.078;2022-08-19T02:31:29;96511.09;;;22.12;63.62
20015;BME280;61787;42.022;23.078;2022-08-19T02:32:30;96507.19;;;22.13;63.56
20015;BME280;61787;42.022;23.078;2022-08-19T02:33:32;96503.28;;;22.14;63.36
20015;BME280;61787;42.022;23.078;2022-08-19T02:34:34;96503.63;;;22.16;63.21
20015;BME280;61787;42.022;23.078;2022-08-19T02:35:36;96509.44;;;22.18;63.46
20015;BME280;61787;42.022;23.078;2022-08-19T02:36:37;96507.06;;;22.20;63.80
20015;BME280;61787;42.022;23.078;2022-08-19T02:37:43;96513.25;;;22.24;63.44
20015;BME280;61787;42.022;23.078;2022-08-19T02:39:03;96512.06;;;22.25;62.95
20015;BME280;61787;42.022;23.078;2022-08-19T02:40:05;96511.63;;;22.27;63.23
20015;BME280;61787;42.022;23.078;2022-08-19T02:41:25;96509.84;;;22.17;63.35
20015;BME280;61787;42.022;23.078;2022-08-19T02:42:27;96516.56;;;22.12;63.49
20015;BME280;61787;42.022;23.078;2022-08-19T02:43:33;96511.94;;;22.09;63.76
20015;BME280;61787;42.022;23.078;2022-08-19T02:44:38;96507.28;;;22.06;63.64
20015;BME280;61787;42.022;23.078;2022-08-19T02:45:40;96514.91;;;21.95;63.92
20015;BME280;61787;42.022;23.078;2022-08-19T02:46:42;96509.91;;;21.86;64.22
20015;BME280;61787;42.022;23.078;2022-08-19T02:47:46;96518.53;;;21.85;64.40
20015;BME280;61787;42.022;23.078;2022-08-19T02:48:49;96513.84;;;21.85;64.09
20015;BME280;61787;42.022;23.078;2022-08-19T02:49:51;96518.56;;;21.81;64.55
20015;BME280;61787;42.022;23.078;2022-08-19T02:50:53;96517.56;;;21.72;64.80
20015;BME280;61787;42.022;23.078;2022-08-19T02:51:56;96518.94;;;21.56;65.25
20015;BME280;61787;42.022;23.078;2022-08-19T02:52:58;96511.31;;;21.44;65.94
20015;BME280;61787;42.022;23.078;2022-08-19T02:54:00;96520.72;;;21.40;66.07
20015;BME280;61787;42.022;23.078;2022-08-19T02:55:03;96518.97;;;21.26;66.46
20015;BME280;61787;42.022;23.078;2022-08-19T02:56:06;96523.41;;;21.13;67.02
20015;BME280;61787;42.022;23.078;2022-08-19T02:57:09;96521.84;;;21.12;67.20
20015;BME280;61787;42.022;23.078;2022-08-19T02:58:10;96524.16;;;21.17;67.17
20015;BME280;61787;42.022;23.078;2022-08-19T02:59:12;96523.00;;;21.14;67.42
20015;BME280;61787;42.022;23.078;2022-08-19T03:00:14;96521.06;;;21.15;67.01
20015;BME280;61787;42.022;23.078;2022-08-19T03:01:25;96514.69;;;21.25;67.17
20015;BME280;61787;42.022;23.078;2022-08-19T03:02:27;96515.16;;;21.20;67.06
20015;BME280;61787;42.022;23.078;2022-08-19T03:03:28;96508.50;;;21.21;67.27
20015;BME280;61787;42.022;23.078;2022-08-19T03:04:30;96517.06;;;21.23;67.08
20015;BME280;61787;42.022;23.078;2022-08-19T03:05:32;96517.75;;;21.31;66.94
20015;BME280;61787;42.022;23.078;2022-08-19T03:06:54;96514.50;;;21.39;66.72
20015;BME280;61787;42.022;23.078;2022-08-19T03:08:02;96519.22;;;21.35;66.91
20015;BME280;61787;42.022;23.078;2022-08-19T03:09:07;96516.97;;;21.30;67.00
20015;BME280;61787;42.022;23.078;2022-08-19T03:10:08;96516.31;;;21.22;67.36
20015;BME280;61787;42.022;23.078;2022-08-19T03:11:22;96515.56;;;21.18;67.32
20015;BME280;61787;42.022;23.078;2022-08-19T03:12:23;96519.59;;;21.03;66.91
20015;BME280;61787;42.022;23.078;2022-08-19T03:13:25;96527.59;;;20.87;67.46
20015;BME280;61787;42.022;23.078;2022-08-19T03:14:30;96534.28;;;20.82;67.63
20015;BME280;61787;42.022;23.078;2022-08-19T03:15:32;96530.56;;;20.62;67.85
20015;BME280;61787;42.022;23.078;2022-08-19T03:16:43;96537.28;;;20.54;68.55
20015;BME280;61787;42.022;23.078;2022-08-19T03:17:45;96540.34;;;20.60;68.54
20015;BME280;61787;42.022;23.078;2022-08-19T03:18:47;96532.84;;;20.67;68.68
20015;BME280;61787;42.022;23.078;2022-08-19T03:19:49;96544.75;;;20.84;68.21
20015;BME280;61787;42.022;23.078;2022-08-19T03:20:52;96536.84;;;20.97;67.97
20015;BME280;61787;42.022;23.078;2022-08-19T03:21:55;96536.72;;;21.04;67.37
20015;BME280;61787;42.022;23.078;2022-08-19T03:22:57;96536.66;;;21.11;67.48
20015;BME280;61787;42.022;23.078;2022-08-19T03:24:01;96537.41;;;21.15;67.08
20015;BME280;61787;42.022;23.078;2022-08-19T03:25:03;96535.41;;;21.19;66.96
20015;BME280;61787;42.022;23.078;2022-08-19T03:26:05;96533.38;;;21.26;66.86
20015;BME280;61787;42.022;23.078;2022-08-19T03:27:17;96531.78;;;21.29;66.78
20015;BME280;61787;42.022;23.078;2022-08-19T03:28:19;96528.59;;;21.34;66.73
20015;BME280;61787;42.022;23.078;2022-08-19T03:29:23;96531.31;;;21.34;67.14
20015;BME280;61787;42.022;23.078;2022-08-19T03:30:31;96536.31;;;21.39;67.00
20015;BME280;61787;42.022;23.078;2022-08-19T03:31:34;96538.59;;;21.44;66.71
20015;BME280;61787;42.022;23.078;2022-08-19T03:32:46;96534.22;;;21.50;66.44
20015;BME280;61787;42.022;23.078;2022-08-19T03:33:53;96543.09;;;21.58;66.30
20015;BME280;61787;42.022;23.078;2022-08-19T03:34:55;96543.41;;;21.63;65.82
20015;BME280;61787;42.022;23.078;2022-08-19T03:36:22;96542.97;;;21.68;65.65
20015;BME280;61787;42.022;23.078;2022-08-19T03:37:24;96539.06;;;21.66;65.33
20015;BME280;61787;42.022;23.078;2022-08-19T03:38:27;96547.06;;;21.53;65.61
20015;BME280;61787;42.022;23.078;2022-08-19T03:39:29;96551.19;;;21.35;66.05
20015;BME280;61787;42.022;23.078;2022-08-19T03:40:32;96543.88;;;21.28;66.45
20015;BME280;61787;42.022;23.078;2022-08-19T03:41:38;96543.13;;;21.24;66.77
20015;BME280;61787;42.022;23.078;2022-08-19T03:42:46;96541.63;;;21.23;66.94
20015;BME280;61787;42.022;23.078;2022-08-19T03:43:50;96544.03;;;21.14;67.03
20015;BME280;61787;42.022;23.078;2022-08-19T03:44:52;96543.69;;;21.08;67.51
20015;BME280;61787;42.022;23.078;2022-08-19T03:46:03;96536.09;;;20.93;66.99
20015;BME280;61787;42.022;23.078;2022-08-19T03:47:05;96535.50;;;20.74;68.47
20015;BME280;61787;42.022;23.078;2022-08-19T03:48:07;96530.91;;;20.68;68.97
20015;BME280;61787;42.022;23.078;2022-08-19T03:49:09;96537.13;;;20.68;69.13
20015;BME280;61787;42.022;23.078;2022-08-19T03:50:15;96542.13;;;20.73;68.60
20015;BME280;61787;42.022;23.078;2022-08-19T03:51:32;96543.25;;;20.79;68.41
20015;BME280;61787;42.022;23.078;2022-08-19T03:52:35;96539.72;;;20.82;68.12
20015;BME280;61787;42.022;23.078;2022-08-19T03:53:38;96544.34;;;20.85;67.82
20015;BME280;61787;42.022;23.078;2022-08-19T03:54:41;96543.13;;;20.90;67.86
20015;BME280;61787;42.022;23.078;2022-08-19T03:55:43;96548.66;;;20.83;67.87
20015;BME280;61787;42.022;23.078;2022-08-19T03:56:47;96542.91;;;20.77;67.81
20015;BME280;61787;42.022;23.078;2022-08-19T03:57:49;96548.69;;;20.79;67.79
20015;BME280;61787;42.022;23.078;2022-08-19T03:58:51;96549.81;;;20.85;67.65
20015;BME280;61787;42.022;23.078;2022-08-19T03:59:54;96554.44;;;20.89;68.06
20015;BME280;61787;42.022;23.078;2022-08-19T04:01:08;96561.09;;;20.88;68.28
20015;BME280;61787;42.022;23.078;2022-08-19T04:02:11;96554.88;;;20.87;68.55
20015;BME280;61787;42.022;23.078;2022-08-19T04:03:13;96555.22;;;20.89;68.34
20015;BME280;61787;42.022;23.078;2022-08-19T04:04:15;96554.09;;;20.87;68.56
20015;BME280;61787;42.022;23.078;2022-08-19T04:05:16;96558.81;;;20.82;68.75
20015;BME280;61787;42.022;23.078;2022-08-19T04:06:19;96567.78;;;20.79;69.29
20015;BME280;61787;42.022;23.078;2022-08-19T04:07:22;96561.97;;;20.77;69.14
20015;BME280;61787;42.022;23.078;2022-08-19T04:08:24;96562.03;;;20.70;69.43
20015;BME280;61787;42.022;23.078;2022-08-19T04:09:26;96557.75;;;20.69;69.81
20015;BME280;61787;42.022;23.078;2022-08-19T04:10:28;96569.06;;;20.68;69.45
20015;BME280;61787;42.022;23.078;2022-08-19T04:11:55;96555.91;;;20.59;69.92
20015;BME280;61787;42.022;23.078;2022-08-19T04:12:57;96562.97;;;20.57;70.00
20015;BME280;61787;42.022;23.078;2022-08-19T04:13:59;96562.97;;;20.53;70.15
20015;BME280;61787;42.022;23.078;2022-08-19T04:15:05;96562.22;;;20.49;70.38
20015;BME280;61787;42.022;23.078;2022-08-19T04:16:08;96562.22;;;20.49;70.48
20015;BME280;61787;42.022;23.078;2022-08-19T04:17:11;96562.97;;;20.53;70.55
20015;BME280;61787;42.022;23.078;2022-08-19T04:18:15;96562.91;;;20.60;70.09
20015;BME280;61787;42.022;23.078;2022-08-19T04:19:17;96563.66;;;20.64;70.30
20015;BME280;61787;42.022;23.078;2022-08-19T04:20:19;96561.25;;;20.70;70.12
20015;BME280;61787;42.022;23.078;2022-08-19T04:21:23;96570.53;;;20.76;70.03
20015;BME280;61787;42.022;23.078;2022-08-19T04:22:25;96565.13;;;20.72;69.98
20015;BME280;61787;42.022;23.078;2022-08-19T04:23:29;96570.53;;;20.76;70.14
20015;BME280;61787;42.022;23.078;2022-08-19T04:24:31;96570.88;;;20.81;70.09
20015;BME280;61787;42.022;23.078;2022-08-19T04:25:38;96573.50;;;20.89;69.93
20015;BME280;61787;42.022;23.078;2022-08-19T04:26:40;96576.56;;;20.98;69.73
20015;BME280;61787;42.022;23.078;2022-08-19T04:27:42;96574.84;;;21.11;68.98
20015;BME280;61787;42.022;23.078;2022-08-19T04:28:48;96577.06;;;21.23;68.71
20015;BME280;61787;42.022;23.078;2022-08-19T04:29:50;96572.25;;;21.34;68.84
20015;BME280;61787;42.022;23.078;2022-08-19T04:30:53;96578.34;;;21.45;68.68
20015;BME280;61787;42.022;23.078;2022-08-19T04:31:56;96579.09;;;21.49;67.85
20015;BME280;61787;42.022;23.078;2022-08-19T04:32:59;96575.91;;;21.54;68.44
20015;BME280;61787;42.022;23.078;2022-08-19T04:34:04;96576.50;;;21.65;67.78
20015;BME280;61787;42.022;23.078;2022-08-19T04:35:06;96577.97;;;21.74;67.71
20015;BME280;61787;42.022;23.078;2022-08-19T04:36:21;96584.41;;;21.87;67.57
20015;BME280;61787;42.022;23.078;2022-08-19T04:37:23;96575.75;;;21.92;67.38
20015;BME280;61787;42.022;23.078;2022-08-19T04:38:26;96587.25;;;22.06;66.49
20015;BME280;61787;42.022;23.078;2022-08-19T04:39:30;96590.59;;;22.18;66.26
20015;BME280;61787;42.022;23.078;2022-08-19T04:40:51;96591.59;;;22.31;65.76
20015;BME280;61787;42.022;23.078;2022-08-19T04:42:11;96592.13;;;22.45;65.49
20015;BME280;61787;42.022;23.078;2022-08-19T04:43:33;96589.84;;;22.64;64.77
20015;BME280;61787;42.022;23.078;2022-08-19T04:44:35;96586.47;;;22.79;63.67
20015;BME280;61787;42.022;23.078;2022-08-19T04:45:46;96592.47;;;22.94;63.31
20015;BME280;61787;42.022;23.078;2022-08-19T04:46:49;96587.50;;;23.09;62.88
20015;BME280;61787;42.022;23.078;2022-08-19T04:47:55;96587.66;;;23.21;62.04
20015;BME280;61787;42.022;23.078;2022-08-19T04:49:21;96597.97;;;23.33;61.32
20015;BME280;61787;42.022;23.078;2022-08-19T04:50:27;96594.03;;;23.34;60.78
20015;BME280;61787;42.022;23.078;2022-08-19T04:51:28;96587.66;;;23.41;60.55
20015;BME280;61787;42.022;23.078;2022-08-19T04:52:32;96588.66;;;23.51;59.92
20015;BME280;61787;42.022;23.078;2022-08-19T04:53:36;96583.38;;;23.60;59.87
20015;BME280;61787;42.022;23.078;2022-08-19T04:54:38;96587.78;;;23.73;59.43
20015;BME280;61787;42.022;23.078;2022-08-19T04:55:41;96585.22;;;23.83;59.65
20015;BME280;61787;42.022;23.078;2022-08-19T04:56:43;96592.84;;;23.91;58.96
20015;BME280;61787;42.022;23.078;2022-08-19T04:57:45;96585.59;;;24.01;58.73
20015;BME280;61787;42.022;23.078;2022-08-19T04:58:47;96592.47;;;24.09;58.34
20015;BME280;61787;42.022;23.078;2022-08-19T04:59:54;96589.56;;;24.16;58.02
20015;BME280;61787;42.022;23.078;2022-08-19T05:00:55;96594.47;;;24.25;58.10
20015;BME280;61787;42.022;23.078;2022-08-19T05:01:57;96589.69;;;24.29;57.56
20015;BME280;61787;42.022;23.078;2022-08-19T05:02:59;96590.69;;;24.18;57.38
20015;BME280;61787;42.022;23.078;2022-08-19T05:04:05;96588.44;;;24.13;57.14
20015;BME280;61787;42.022;23.078;2022-08-19T05:05:07;96590.81;;;24.11;57.11
20015;BME280;61787;42.022;23.078;2022-08-19T05:06:14;96589.84;;;23.86;57.73
20015;BME280;61787;42.022;23.078;2022-08-19T05:07:16;96592.44;;;23.93;57.84
20015;BME280;61787;42.022;23.078;2022-08-19T05:08:20;96590.50;;;24.09;57.39
20015;BME280;61787;42.022;23.078;2022-08-19T05:09:32;96593.88;;;24.17;57.01
20015;BME280;61787;42.022;23.078;2022-08-19T05:10:53;96592.59;;;24.38;56.51
20015;BME280;61787;42.022;23.078;2022-08-19T05:11:55;96593.09;;;24.49;56.04
20015;BME280;61787;42.022;23.078;2022-08-19T05:12:57;96589.84;;;24.54;55.94
20015;BME280;61787;42.022;23.078;2022-08-19T05:13:59;96597.56;;;24.59;56.26
20015;BME280;61787;42.022;23.078;2022-08-19T05:15:03;96591.69;;;24.73;55.75
20015;BME280;61787;42.022;23.078;2022-08-19T05:16:05;96588.19;;;24.89;55.38
20015;BME280;61787;42.022;23.078;2022-08-19T05:17:07;96591.00;;;24.85;54.78
20015;BME280;61787;42.022;23.078;2022-08-19T05:18:27;96587.59;;;24.81;54.93
20015;BME280;61787;42.022;23.078;2022-08-19T05:19:48;96582.09;;;24.97;55.26
20015;BME280;61787;42.022;23.078;2022-08-19T05:21:10;96587.97;;;25.12;54.75
20015;BME280;61787;42.022;23.078;2022-08-19T05:22:31;96590.22;;;25.30;54.56
20015;BME280;61787;42.022;23.078;2022-08-19T05:23:33;96589.91;;;25.40;54.18
20015;BME280;61787;42.022;23.078;2022-08-19T05:24:35;96585.66;;;25.52;54.64
20015;BME280;61787;42.022;23.078;2022-08-19T05:25:57;96590.75;;;25.66;54.74
20015;BME280;61787;42.022;23.078;2022-08-19T05:27:00;96591.56;;;25.79;53.47
20015;BME280;61787;42.022;23.078;2022-08-19T05:28:03;96592.53;;;25.85;54.17
20015;BME280;61787;42.022;23.078;2022-08-19T05:29:06;96595.44;;;25.95;53.91
20015;BME280;61787;42.022;23.078;2022-08-19T05:30:11;96591.13;;;26.06;53.38
20015;BME280;61787;42.022;23.078;2022-08-19T05:31:12;96587.09;;;26.11;53.44
20015;BME280;61787;42.022;23.078;2022-08-19T05:32:14;96583.78;;;26.16;53.70
20015;BME280;61787;42.022;23.078;2022-08-19T05:33:17;96579.59;;;26.24;53.68
20015;BME280;61787;42.022;23.078;2022-08-19T05:34:20;96585.75;;;26.28;53.35
20015;BME280;61787;42.022;23.078;2022-08-19T05:35:23;96586.88;;;26.30;53.33
20015;BME280;61787;42.022;23.078;2022-08-19T05:36:26;96585.84;;;26.37;52.91
20015;BME280;61787;42.022;23.078;2022-08-19T05:37:28;96585.97;;;26.46;52.69
20015;BME280;61787;42.022;23.078;2022-08-19T05:38:30;96581.00;;;26.54;52.55